Terminal Aerodrome Forecast
Issued by NWS

Home | Current Version | Previous Version | Text Only | Print | Product List | Glossary On
Versions: 1 2 3 4 5 6 7 8 9 10 11 12 13 14 15 16 17 18 19 20 21 22 23 24 25 26 27 28 29 30 31 32 33 34 35 36 37 38 39 40 41 42 43 44 45
000
FTAK31 PANC 061502 AAA
TAFADL
TAF AMD
PADL 061502Z 0615/0712 03011KT P6SM OVC015
      TEMPO 0615/0618 SCT015 OVC040
     FM061800 03011KT P6SM SCT020 OVC040
     FM062100 07012G20KT P6SM -SHRA OVC035
     FM070200 06016G25KT 6SM -RA SCT015 BKN022
      AMD LTD TO CLD VIS AND WIND TIL 061600=

USA.gov is the U.S. government's official web portal to all federal, state and local government web resources and services.